createdAt,value
2023-01-19T00:00:54.043Z,98636.25
2023-01-19T00:03:21.777Z,98632.59
2023-01-19T00:05:49.187Z,98628.72
2023-01-19T00:08:16.142Z,98628.53
2023-01-19T00:10:47.898Z,98632.38
2023-01-19T00:13:15.191Z,98629.94
2023-01-19T00:15:42.187Z,98627.94
2023-01-19T00:18:10.682Z,98632.41
2023-01-19T00:20:38.237Z,98624.47
2023-01-19T00:23:05.743Z,98625.28
2023-01-19T00:25:32.431Z,98620.19
2023-01-19T00:28:01.356Z,98625.88
2023-01-19T00:30:28.629Z,98625.41
2023-01-19T00:32:56.073Z,98630.88
2023-01-19T00:35:22.884Z,98633.88
2023-01-19T00:37:49.717Z,98633.44
2023-01-19T00:40:17.144Z,98633.41
2023-01-19T00:42:48.573Z,98638.91
2023-01-19T00:45:19.001Z,98637.66
2023-01-19T00:47:47.088Z,98637.72
2023-01-19T00:50:19.510Z,98636.03
2023-01-19T00:52:46.414Z,98638.38
2023-01-19T00:55:14.686Z,98640.69
2023-01-19T00:57:42.274Z,98641.63
2023-01-19T01:00:12.056Z,98644.13
2023-01-19T01:02:40.303Z,98639.09
2023-01-19T01:05:08.076Z,98633.97
2023-01-19T01:07:40.874Z,98636.44
2023-01-19T01:10:09.823Z,98638.09
2023-01-19T01:12:37.304Z,98636.25
2023-01-19T01:15:10.185Z,98632.63
2023-01-19T01:17:37.605Z,98637.72
2023-01-19T01:20:05.029Z,98637.34
2023-01-19T01:22:31.861Z,98633.28
2023-01-19T01:24:58.594Z,98631.66
2023-01-19T01:27:25.387Z,98628.16
2023-01-19T01:29:52.212Z,98625.00
2023-01-19T01:32:19.084Z,98619.09
2023-01-19T01:34:45.822Z,98621.50
2023-01-19T01:37:12.688Z,98627.81
2023-01-19T01:39:39.419Z,98617.25
2023-01-19T01:42:17.432Z,98620.63
2023-01-19T01:44:50.149Z,98614.13
2023-01-19T01:47:26.286Z,98615.72
2023-01-19T01:49:58.821Z,98612.22
2023-01-19T01:52:27.013Z,98615.44
2023-01-19T01:54:53.970Z,98616.03
2023-01-19T01:57:20.870Z,98617.34
2023-01-19T01:59:48.733Z,98624.00
2023-01-19T02:02:40.074Z,98617.94
2023-01-19T02:05:12.760Z,98615.41
2023-01-19T02:08:04.289Z,98614.59
2023-01-19T02:10:50.024Z,98617.63
2023-01-19T02:13:20.048Z,98626.03
2023-01-19T02:15:51.815Z,98621.81
2023-01-19T02:18:22.853Z,98626.09
2023-01-19T02:21:20.446Z,98611.09
2023-01-19T02:23:52.857Z,98621.38
2023-01-19T02:26:21.996Z,98614.09
2023-01-19T02:28:52.033Z,98618.81
2023-01-19T02:31:19.050Z,98611.41
2023-01-19T02:33:45.951Z,98622.16
2023-01-19T02:36:15.244Z,98622.16
2023-01-19T02:38:43.105Z,98619.94
2023-01-19T02:41:12.101Z,98631.06
2023-01-19T02:43:39.044Z,98621.81
2023-01-19T02:46:05.941Z,98621.88
2023-01-19T02:48:32.672Z,98605.31
2023-01-19T02:51:04.725Z,98608.19
2023-01-19T02:54:06.951Z,98598.50
2023-01-19T02:56:45.749Z,98604.16
2023-01-19T02:59:24.686Z,98594.06
2023-01-19T03:02:04.651Z,98602.59
2023-01-19T03:04:49.688Z,98588.59
2023-01-19T03:08:04.671Z,98595.25
2023-01-19T03:10:52.853Z,98594.41
2023-01-19T03:13:25.360Z,98598.22
2023-01-19T03:15:56.102Z,98600.56
2023-01-19T03:18:24.475Z,98603.13
2023-01-19T03:20:53.576Z,98603.13
2023-01-19T03:23:21.223Z,98607.19
2023-01-19T03:25:49.470Z,98616.09
2023-01-19T03:28:18.621Z,98607.19
2023-01-19T03:30:49.032Z,98610.28
2023-01-19T03:33:29.591Z,98610.09
2023-01-19T03:36:07.197Z,98617.50
2023-01-19T03:38:37.624Z,98609.97
2023-01-19T03:41:11.822Z,98607.28
2023-01-19T03:43:40.036Z,98597.81
2023-01-19T03:46:07.867Z,98590.47
2023-01-19T03:48:34.830Z,98588.72
2023-01-19T03:51:06.132Z,98593.28
2023-01-19T03:53:33.073Z,98590.66
2023-01-19T03:55:59.970Z,98596.59
2023-01-19T03:58:26.908Z,98600.06
2023-01-19T04:00:53.759Z,98601.63
2023-01-19T04:03:20.564Z,98585.31
2023-01-19T04:05:47.497Z,98588.19
2023-01-19T04:08:14.289Z,98590.00
2023-01-19T04:10:41.296Z,98587.19
2023-01-19T04:13:08.245Z,98585.47
2023-01-19T04:15:35.129Z,98586.59
2023-01-19T04:18:02.090Z,98580.00
2023-01-19T04:20:29.654Z,98575.00
2023-01-19T04:23:01.106Z,98581.75
2023-01-19T04:25:29.174Z,98578.38
2023-01-19T04:27:58.024Z,98579.44
2023-01-19T04:30:25.133Z,98576.72
2023-01-19T04:32:52.135Z,98574.91
2023-01-19T04:35:20.091Z,98573.94
2023-01-19T04:40:13.800Z,98565.47
2023-01-19T04:42:45.168Z,98567.50
2023-01-19T04:45:13.391Z,98571.22
2023-01-19T04:47:40.344Z,98561.69
2023-01-19T04:50:08.499Z,98565.31
2023-01-19T04:52:35.859Z,98570.22
2023-01-19T04:55:06.737Z,98562.34
2023-01-19T04:57:33.623Z,98561.09
2023-01-19T05:00:01.140Z,98555.63
2023-01-19T05:02:27.990Z,98560.47
2023-01-19T05:04:54.795Z,98552.38
2023-01-19T05:07:21.608Z,98552.97
2023-01-19T05:09:48.772Z,98549.31
2023-01-19T05:12:15.609Z,98555.16
2023-01-19T05:14:43.412Z,98546.22
2023-01-19T05:17:10.532Z,98558.19
2023-01-19T05:19:37.273Z,98553.91
2023-01-19T05:22:04.858Z,98560.00
2023-01-19T05:24:31.966Z,98555.16
2023-01-19T05:26:59.129Z,98564.88
2023-01-19T05:29:25.885Z,98557.34
2023-01-19T05:31:52.745Z,98554.91
2023-01-19T05:34:19.633Z,98553.63
2023-01-19T05:36:46.384Z,98553.63
2023-01-19T05:39:13.195Z,98553.78
2023-01-19T05:41:42.063Z,98547.91
2023-01-19T05:44:10.349Z,98552.16
2023-01-19T05:46:37.216Z,98553.53
2023-01-19T05:49:05.233Z,98554.53
2023-01-19T05:51:35.247Z,98559.53
2023-01-19T05:54:02.245Z,98560.25
2023-01-19T05:56:29.425Z,98559.69
2023-01-19T05:58:56.187Z,98558.72
2023-01-19T06:01:23.070Z,98563.31
2023-01-19T06:03:50.002Z,98553.50
2023-01-19T06:06:17.253Z,98549.69
2023-01-19T06:08:44.809Z,98542.53
2023-01-19T06:11:12.160Z,98537.63
2023-01-19T06:13:42.273Z,98546.03
2023-01-19T06:16:09.788Z,98544.41
2023-01-19T06:18:36.692Z,98545.50
2023-01-19T06:21:05.579Z,98538.03
2023-01-19T06:23:33.075Z,98530.50
2023-01-19T06:26:00.349Z,98530.31
2023-01-19T06:28:27.174Z,98526.09
2023-01-19T06:30:55.535Z,98534.97
2023-01-19T06:33:23.424Z,98529.00
2023-01-19T06:35:50.715Z,98521.50
2023-01-19T06:38:18.607Z,98518.22
2023-01-19T06:40:46.578Z,98506.78
2023-01-19T06:43:13.439Z,98523.31
2023-01-19T06:45:40.250Z,98527.44
2023-01-19T06:48:07.072Z,98520.38
2023-01-19T06:50:33.895Z,98517.75
2023-01-19T06:53:01.174Z,98521.19
2023-01-19T06:55:28.284Z,98533.63
2023-01-19T06:57:59.047Z,98523.50
2023-01-19T07:00:25.866Z,98519.66
2023-01-19T07:02:52.857Z,98519.66
2023-01-19T07:05:22.186Z,98533.25
2023-01-19T07:07:53.594Z,98519.69
2023-01-19T07:10:21.043Z,98524.53
2023-01-19T07:12:48.141Z,98507.69
2023-01-19T07:15:16.434Z,98519.81
2023-01-19T07:17:44.166Z,98507.06
2023-01-19T07:20:14.222Z,98504.66
2023-01-19T07:22:42.085Z,98496.72
2023-01-19T07:25:09.163Z,98488.81
2023-01-19T07:27:36.326Z,98489.28
2023-01-19T07:30:04.604Z,98499.75
2023-01-19T07:32:31.418Z,98508.69
2023-01-19T07:34:58.325Z,98514.56
2023-01-19T07:37:25.263Z,98499.16
2023-01-19T07:39:52.034Z,98504.25
2023-01-19T07:42:18.832Z,98501.84
2023-01-19T07:44:46.789Z,98507.53
2023-01-19T07:47:13.749Z,98499.44
2023-01-19T07:49:40.492Z,98496.03
2023-01-19T07:52:07.319Z,98501.31
2023-01-19T07:54:34.047Z,98494.41
2023-01-19T07:57:01.331Z,98498.06
2023-01-19T07:59:30.327Z,98494.81
2023-01-19T08:01:59.562Z,98489.56
2023-01-19T08:04:27.397Z,98492.78
2023-01-19T08:06:55.660Z,98490.16
2023-01-19T08:09:22.828Z,98493.66
2023-01-19T08:11:49.646Z,98490.59
2023-01-19T08:14:16.499Z,98487.16
2023-01-19T08:16:43.328Z,98482.91
2023-01-19T08:19:10.856Z,98477.63
2023-01-19T08:21:39.030Z,98492.06
2023-01-19T08:24:06.241Z,98472.94
2023-01-19T08:26:35.045Z,98475.41
2023-01-19T08:29:04.295Z,98467.31
2023-01-19T08:31:31.594Z,98468.13
2023-01-19T08:33:58.759Z,98461.00
2023-01-19T08:36:25.893Z,98464.66
2023-01-19T08:38:52.901Z,98470.56
2023-01-19T08:41:19.952Z,98459.97
2023-01-19T08:43:46.958Z,98457.34
2023-01-19T08:46:17.579Z,98450.03
2023-01-19T08:48:48.789Z,98454.09
2023-01-19T08:51:15.912Z,98448.22
2023-01-19T08:53:43.156Z,98453.91
2023-01-19T08:56:14.379Z,98456.13
2023-01-19T08:58:45.757Z,98451.06
2023-01-19T09:01:22.907Z,98437.09
2023-01-19T09:03:49.823Z,98448.66
2023-01-19T09:06:19.690Z,98431.59
2023-01-19T09:08:47.554Z,98427.34
2023-01-19T09:11:15.842Z,98417.41
2023-01-19T09:13:43.003Z,98414.34
2023-01-19T09:16:11.560Z,98410.09
2023-01-19T09:18:38.550Z,98419.59
2023-01-19T09:21:05.585Z,98412.28
2023-01-19T09:23:32.543Z,98422.88
2023-01-19T09:26:01.828Z,98412.91
2023-01-19T09:28:29.458Z,98412.28
2023-01-19T09:30:56.940Z,98412.66
2023-01-19T09:33:24.760Z,98410.44
2023-01-19T09:35:52.029Z,98403.94
2023-01-19T09:38:19.705Z,98409.44
2023-01-19T09:40:52.315Z,98399.88
2023-01-19T09:43:21.727Z,98396.19
2023-01-19T09:45:58.740Z,98395.75
2023-01-19T09:48:44.099Z,98395.50
2023-01-19T09:51:33.870Z,98390.59
2023-01-19T09:54:12.355Z,98410.66
2023-01-19T09:56:39.377Z,98396.84
2023-01-19T09:59:25.192Z,98400.69
2023-01-19T10:01:52.620Z,98398.69
2023-01-19T10:04:34.275Z,98380.34
2023-01-19T10:07:28.248Z,98389.31
2023-01-19T10:10:33.346Z,98386.88
2023-01-19T10:13:10.647Z,98385.25
2023-01-19T10:16:01.365Z,98390.75
2023-01-19T10:18:43.318Z,98387.91
2023-01-19T10:21:40.256Z,98390.75
2023-01-19T10:24:25.127Z,98390.94
2023-01-19T10:26:54.648Z,98389.47
2023-01-19T10:29:37.874Z,98385.38
2023-01-19T10:32:25.737Z,98393.66
2023-01-19T10:34:53.742Z,98405.81
2023-01-19T10:37:33.649Z,98404.44
2023-01-19T10:40:09.656Z,98399.78
2023-01-19T10:42:38.403Z,98404.84
2023-01-19T10:45:19.709Z,98425.41
2023-01-19T10:47:47.915Z,98421.75
2023-01-19T10:50:41.798Z,98417.63
2023-01-19T10:53:20.760Z,98421.91
2023-01-19T10:55:47.584Z,98426.53
2023-01-19T10:58:29.114Z,98432.50
2023-01-19T11:00:56.187Z,98425.53
2023-01-19T11:03:30.675Z,98428.97
2023-01-19T11:06:15.801Z,98434.84
2023-01-19T11:08:43.770Z,98435.81
2023-01-19T11:11:12.508Z,98422.78
2023-01-19T11:13:40.589Z,98439.00
2023-01-19T11:16:27.230Z,98434.09
2023-01-19T11:18:57.293Z,98438.72
2023-01-19T11:21:27.084Z,98442.38
2023-01-19T11:23:56.342Z,98451.88
2023-01-19T11:26:41.770Z,98446.13
2023-01-19T11:29:21.725Z,98447.94
2023-01-19T11:31:49.252Z,98447.13
2023-01-19T11:34:24.749Z,98453.56
2023-01-19T11:37:18.136Z,98450.91
2023-01-19T11:39:58.496Z,98450.25
2023-01-19T11:42:26.084Z,98456.28
2023-01-19T11:45:01.705Z,98464.84
2023-01-19T11:47:54.760Z,98467.66
2023-01-19T11:50:29.316Z,98465.97
2023-01-19T11:53:33.226Z,98476.94
2023-01-19T11:56:14.265Z,98476.88
2023-01-19T11:58:46.880Z,98480.34
2023-01-19T12:01:22.008Z,98487.28
2023-01-19T12:03:57.501Z,98484.75
2023-01-19T12:06:54.751Z,98494.75
2023-01-19T12:09:28.415Z,98483.91
2023-01-19T12:12:05.300Z,98494.44
2023-01-19T12:14:40.260Z,98491.56
2023-01-19T12:17:14.195Z,98499.88
2023-01-19T12:19:54.900Z,98499.47
2023-01-19T12:22:22.594Z,98496.00
2023-01-19T12:24:52.562Z,98502.25
2023-01-19T12:27:33.646Z,98510.59
2023-01-19T12:30:00.933Z,98509.84
2023-01-19T12:32:36.798Z,98516.03
2023-01-19T12:35:03.835Z,98522.00
2023-01-19T12:37:40.105Z,98516.53
2023-01-19T12:40:20.932Z,98514.88
2023-01-19T12:42:56.782Z,98526.91
2023-01-19T12:45:25.925Z,98523.63
2023-01-19T12:47:53.604Z,98520.41
2023-01-19T12:50:23.423Z,98529.34
2023-01-19T12:52:57.232Z,98526.19
2023-01-19T12:55:33.290Z,98530.34
2023-01-19T12:58:21.518Z,98535.66
2023-01-19T13:00:50.199Z,98531.47
2023-01-19T13:03:19.851Z,98535.53
2023-01-19T13:05:54.717Z,98538.06
2023-01-19T13:08:25.960Z,98537.94
2023-01-19T13:11:12.450Z,98537.81
2023-01-19T13:13:45.132Z,98549.06
2023-01-19T13:16:27.701Z,98553.00
2023-01-19T13:19:08.646Z,98556.38
2023-01-19T13:21:39.840Z,98558.56
2023-01-19T13:24:22.832Z,98561.63
2023-01-19T13:26:49.632Z,98567.94
2023-01-19T13:29:40.386Z,98571.56
2023-01-19T13:32:16.016Z,98573.47
2023-01-19T13:34:45.717Z,98574.72
2023-01-19T13:39:49.993Z,98582.94
2023-01-19T13:42:29.815Z,98583.09
2023-01-19T13:44:59.800Z,98588.00
2023-01-19T13:47:39.085Z,98590.69
2023-01-19T13:50:06.505Z,98578.97
2023-01-19T13:52:33.264Z,98590.13
2023-01-19T13:55:03.453Z,98593.28
2023-01-19T13:57:41.201Z,98591.81
2023-01-19T14:00:16.976Z,98593.97
2023-01-19T14:03:01.771Z,98597.69
2023-01-19T14:05:30.194Z,98599.75
2023-01-19T14:08:13.600Z,98599.84
2023-01-19T14:10:47.928Z,98593.78
2023-01-19T14:13:18.539Z,98603.47
2023-01-19T14:15:47.129Z,98602.50
2023-01-19T14:18:16.840Z,98605.72
2023-01-19T14:21:04.099Z,98608.09
2023-01-19T14:23:42.090Z,98615.66
2023-01-19T14:26:43.060Z,98623.44
2023-01-19T14:29:09.797Z,98632.13
2023-01-19T14:32:04.051Z,98636.53
2023-01-19T14:34:42.732Z,98628.38
2023-01-19T14:37:21.742Z,98632.44
2023-01-19T14:39:55.294Z,98642.88
2023-01-19T14:42:31.740Z,98647.00
2023-01-19T14:45:01.163Z,98656.91
2023-01-19T14:47:32.558Z,98665.53
2023-01-19T14:50:04.965Z,98664.56
2023-01-19T14:52:35.046Z,98674.56
2023-01-19T14:55:03.885Z,98669.41
2023-01-19T14:57:30.649Z,98673.28
2023-01-19T14:59:57.424Z,98678.78
2023-01-19T15:02:24.188Z,98697.38
2023-01-19T15:04:55.233Z,98689.06
2023-01-19T15:07:24.276Z,98686.41
2023-01-19T15:09:51.392Z,98694.03
2023-01-19T15:12:18.580Z,98689.44
2023-01-19T15:14:45.677Z,98711.63
2023-01-19T15:17:16.936Z,98720.63
2023-01-19T15:19:43.773Z,98716.69
2023-01-19T15:22:14.812Z,98728.00
2023-01-19T15:24:41.669Z,98733.28
2023-01-19T15:27:11.924Z,98741.38
2023-01-19T15:29:42.281Z,98735.34
2023-01-19T15:32:13.518Z,98746.75
2023-01-19T15:34:40.744Z,98749.63
2023-01-19T15:37:07.974Z,98758.34
2023-01-19T15:39:35.030Z,98757.81
2023-01-19T15:42:01.805Z,98774.31
2023-01-19T15:44:28.646Z,98763.63
2023-01-19T15:46:55.423Z,98772.44
2023-01-19T15:49:23.209Z,98764.81
2023-01-19T15:51:49.996Z,98778.34
2023-01-19T15:54:17.014Z,98781.88
2023-01-19T15:56:43.735Z,98783.94
2023-01-19T15:59:10.709Z,98780.28
2023-01-19T16:01:37.579Z,98793.38
2023-01-19T16:04:07.517Z,98793.34
2023-01-19T16:06:34.451Z,98802.97
2023-01-19T16:09:01.723Z,98806.88
2023-01-19T16:11:32.319Z,98806.81
2023-01-19T16:13:59.248Z,98802.00
2023-01-19T16:16:28.048Z,98819.56
2023-01-19T16:18:55.557Z,98812.84
2023-01-19T16:21:22.638Z,98812.22
2023-01-19T16:23:49.697Z,98823.91
2023-01-19T16:26:34.564Z,98822.91
2023-01-19T16:29:08.704Z,98829.47
2023-01-19T16:31:39.700Z,98835.16
2023-01-19T16:34:06.954Z,98838.03
2023-01-19T16:36:36.381Z,98844.00
2023-01-19T16:39:06.589Z,98844.16
2023-01-19T16:41:34.274Z,98862.13
2023-01-19T16:44:01.573Z,98862.31
2023-01-19T16:46:30.545Z,98877.38
2023-01-19T16:49:02.284Z,98878.22
2023-01-19T16:51:29.748Z,98878.16
2023-01-19T16:53:56.542Z,98891.00
2023-01-19T16:56:23.355Z,98886.91
2023-01-19T16:58:57.140Z,98898.31
2023-01-19T17:01:25.602Z,98887.38
2023-01-19T17:03:52.403Z,98884.50
2023-01-19T17:06:22.752Z,98880.81
2023-01-19T17:08:50.512Z,98896.34
2023-01-19T17:11:22.495Z,98906.41
2023-01-19T17:14:17.797Z,98901.31
2023-01-19T17:16:44.624Z,98901.75
2023-01-19T17:19:15.179Z,98905.25
2023-01-19T17:21:44.522Z,98904.41
2023-01-19T17:24:11.310Z,98924.41
2023-01-19T17:26:38.282Z,98908.47
2023-01-19T17:29:06.938Z,98920.09
2023-01-19T17:31:34.571Z,98917.44
2023-01-19T17:34:01.441Z,98918.06
2023-01-19T17:36:29.851Z,98921.66
2023-01-19T17:38:58.344Z,98931.81
2023-01-19T17:41:27.909Z,98935.50
2023-01-19T17:43:55.128Z,98937.00
2023-01-19T17:46:24.336Z,98962.50
2023-01-19T17:48:54.576Z,98968.38
2023-01-19T17:51:24.862Z,98976.78
2023-01-19T17:53:52.460Z,98966.31
2023-01-19T17:56:26.283Z,98970.78
2023-01-19T17:58:53.511Z,98974.66
2023-01-19T18:01:25.665Z,98970.22
2023-01-19T18:03:53.220Z,98976.34
2023-01-19T18:06:20.598Z,98980.78
2023-01-19T18:08:49.173Z,98988.38
2023-01-19T18:11:18.370Z,98993.03
2023-01-19T18:13:46.723Z,99012.81
2023-01-19T18:16:15.770Z,98992.66
2023-01-19T18:18:44.111Z,98993.47
2023-01-19T18:21:13.156Z,98994.31
2023-01-19T18:23:40.373Z,99003.66
2023-01-19T18:26:10.069Z,99005.47
2023-01-19T18:28:37.328Z,98999.63
2023-01-19T18:31:22.971Z,98999.06
2023-01-19T18:33:49.827Z,99009.03
2023-01-19T18:36:17.417Z,99013.75
2023-01-19T18:38:44.891Z,99007.78
2023-01-19T18:41:17.166Z,99020.88
2023-01-19T18:43:44.316Z,99028.00
2023-01-19T18:46:11.514Z,99033.94
2023-01-19T18:48:39.109Z,99049.44
2023-01-19T18:51:11.273Z,99035.56
2023-01-19T18:53:38.666Z,99040.84
2023-01-19T18:56:06.349Z,99042.94
2023-01-19T18:58:34.184Z,99049.47
2023-01-19T19:01:01.828Z,99057.84
2023-01-19T19:03:29.068Z,99059.28
2023-01-19T19:05:56.326Z,99075.19
2023-01-19T19:08:23.226Z,99076.59
2023-01-19T19:10:49.982Z,99071.09
2023-01-19T19:13:17.594Z,99077.25
2023-01-19T19:15:44.561Z,99076.81
2023-01-19T19:18:13.921Z,99088.66
2023-01-19T19:20:43.172Z,99079.25
2023-01-19T19:23:10.939Z,99083.34
2023-01-19T19:25:38.183Z,99098.03
2023-01-19T19:28:05.104Z,99104.78
2023-01-19T19:30:34.387Z,99109.88
2023-01-19T19:33:01.473Z,99107.44
2023-01-19T19:35:30.450Z,99112.13
2023-01-19T19:37:58.109Z,99105.38
2023-01-19T19:40:26.187Z,99094.16
2023-01-19T19:42:53.151Z,99113.75
2023-01-19T19:45:20.593Z,99116.00
2023-01-19T19:47:47.409Z,99142.53
2023-01-19T19:50:14.564Z,99132.75
2023-01-19T19:52:42.079Z,99129.44
2023-01-19T19:55:09.926Z,99127.84
2023-01-19T19:57:36.837Z,99139.25
2023-01-19T20:00:05.276Z,99136.19
2023-01-19T20:02:36.752Z,99142.53
2023-01-19T20:05:04.388Z,99150.06
2023-01-19T20:07:31.329Z,99156.19
2023-01-19T20:09:58.435Z,99160.28
2023-01-19T20:12:25.321Z,99171.91
2023-01-19T20:14:52.385Z,99172.34
2023-01-19T20:17:20.746Z,99171.53
2023-01-19T20:19:49.061Z,99176.41
2023-01-19T20:22:16.054Z,99191.91
2023-01-19T20:24:42.896Z,99181.31
2023-01-19T20:27:09.718Z,99192.94
2023-01-19T20:29:36.601Z,99203.94
2023-01-19T20:32:03.620Z,99198.44
2023-01-19T20:34:33.463Z,99201.28
2023-01-19T20:37:01.887Z,99196.63
2023-01-19T20:39:30.170Z,99195.59
2023-01-19T20:41:57.082Z,99203.97
2023-01-19T20:44:25.417Z,99216.41
2023-01-19T20:46:53.610Z,99222.31
2023-01-19T20:49:20.548Z,99232.09
2023-01-19T20:51:47.683Z,99237.81
2023-01-19T20:54:16.529Z,99229.06
2023-01-19T20:56:43.342Z,99235.59
2023-01-19T20:59:10.933Z,99241.09
2023-01-19T21:01:38.293Z,99238.44
2023-01-19T21:04:05.167Z,99241.91
2023-01-19T21:06:31.895Z,99251.09
2023-01-19T21:08:58.735Z,99256.00
2023-01-19T21:11:25.784Z,99255.19
2023-01-19T21:13:56.018Z,99256.59
2023-01-19T21:16:28.435Z,99253.94
2023-01-19T21:18:55.780Z,99259.25
2023-01-19T21:21:30.539Z,99258.03
2023-01-19T21:24:02.363Z,99272.94
2023-01-19T21:26:33.513Z,99281.03
2023-01-19T21:29:01.734Z,99288.59
2023-01-19T21:31:29.193Z,99298.75
2023-01-19T21:33:57.308Z,99306.16
2023-01-19T21:36:24.645Z,99311.66
2023-01-19T21:38:52.516Z,99307.00
2023-01-19T21:41:19.762Z,99314.72
2023-01-19T21:43:46.895Z,99324.38
2023-01-19T21:46:15.174Z,99325.59
2023-01-19T21:48:42.095Z,99333.38
2023-01-19T21:51:09.477Z,99329.91
2023-01-19T21:53:36.610Z,99332.56
2023-01-19T21:56:06.422Z,99331.53
2023-01-19T21:58:33.320Z,99326.25
2023-01-19T22:01:06.136Z,99340.13
2023-01-19T22:03:33.191Z,99343.19
2023-01-19T22:06:07.796Z,99345.00
2023-01-19T22:08:35.279Z,99348.84
2023-01-19T22:11:06.031Z,99352.47
2023-01-19T22:13:33.875Z,99353.75
2023-01-19T22:16:05.275Z,99366.59
2023-01-19T22:18:32.472Z,99362.31
2023-01-19T22:21:13.222Z,99365.38
2023-01-19T22:23:40.435Z,99362.50
2023-01-19T22:26:08.269Z,99361.69
2023-01-19T22:28:35.912Z,99378.38
2023-01-19T22:31:15.510Z,99384.34
2023-01-19T22:33:42.972Z,99387.22
2023-01-19T22:36:10.726Z,99382.72
2023-01-19T22:38:39.964Z,99390.53
2023-01-19T22:41:28.384Z,99387.06
2023-01-19T22:43:58.212Z,99386.44
2023-01-19T22:46:27.537Z,99381.91
2023-01-19T22:48:55.023Z,99388.47
2023-01-19T22:51:22.587Z,99403.16
2023-01-19T22:53:49.605Z,99402.09
2023-01-19T22:56:18.872Z,99403.94
2023-01-19T22:58:46.335Z,99406.78
2023-01-19T23:01:15.268Z,99407.56
2023-01-19T23:03:42.227Z,99419.81
2023-01-19T23:06:14.958Z,99423.94
2023-01-19T23:08:42.333Z,99430.69
2023-01-19T23:11:12.091Z,99441.72
2023-01-19T23:13:38.941Z,99434.59
2023-01-19T23:16:06.653Z,99426.41
2023-01-19T23:18:33.850Z,99441.16
2023-01-19T23:21:10.009Z,99452.13
2023-01-19T23:23:37.569Z,99468.66
2023-01-19T23:26:07.242Z,99467.41
2023-01-19T23:28:34.408Z,99475.19
2023-01-19T23:31:01.435Z,99476.38
2023-01-19T23:33:28.319Z,99484.94
2023-01-19T23:35:55.668Z,99492.72
2023-01-19T23:38:22.708Z,99497.72
2023-01-19T23:40:49.559Z,99502.44
2023-01-19T23:43:16.392Z,99515.19
2023-01-19T23:45:43.132Z,99519.97
2023-01-19T23:48:10.147Z,99516.22
2023-01-19T23:50:40.004Z,99526.81
2023-01-19T23:53:07.163Z,99530.34
2023-01-19T23:55:33.882Z,99532.16
2023-01-19T23:58:00.658Z,99539.53
